Packwood, WA

2:37 PM PST on November 27, 2014 (GMT -0800)
RAWS OHANAPECOSH WA US | Change Station
CLOSE
Current Station
Personal Weather Station
Location: Packwood, WA
Elevation: 1950 ft
Nearby Weather Stations
Active Advisory: Areal Flood Watch Active Notice: Record Report

Elev 1950 ft 46.73 °N, 121.57 °W | Updated 56 minutes ago

Overcast
Overcast
47 °F
Feels Like 47 °F
N
0
Wind Variable Wind from North
Gusts 1.0 mph

Today
High -- | Low -- °F
--% Chance of Precip.
Yesterday
High -- | Low -- °F
Precip. -- in
7:25 AM 4:22 PM
Waxing Crescent, 33% visible
Pressure 29.81 in
Visibility 10.0 miles
Clouds Scattered Clouds 2700 ft
Mostly Cloudy 7500 ft
Windchill 47 °F
Dew Point 47 °F
Humidity 100%
Rainfall 0.76 in
Snow Depth Not available.
UV 0 out of 12
Pollen .40 out of 12
Air Quality Not available.
Flu Activity Not available.
SPECI KTCM 272228Z AUTO 19015G22KT 10SM SCT027 BKN075 14/12 A2981 RMK AO2 RAB2159E2208 $

More Conditions Fewer Conditions

Pressure 29.81 in
Visibility 10.0 miles
Clouds Scattered Clouds 2700 ft
Mostly Cloudy 7500 ft
Windchill 47 °F
Dew Point 47 °F
Humidity 100%
Rainfall 0.76 in
Snow Depth Not available.
UV 0 out of 12
Pollen .40 out of 12
Air Quality Not available.
Flu Activity Not available.
SPECI KTCM 272228Z AUTO 19015G22KT 10SM SCT027 BKN075 14/12 A2981 RMK AO2 RAB2159E2208 $

More Conditions Fewer Conditions

10-Day Weather Forecast

Almanac

Astronomy

Nov. 27, 2014 Rise Set
Actual Time
Civil Twilight
Nautical Twilight
Astronomical Twilight
Moon
Length of Visible Light
Length of Day
Tomorrow will be .
, % of the Moon is Illuminated

Today's Extremes

State Highs State Lows

Community

WunderPhotos

Upload Photos

1,774,125 photos uploaded!

WunderBlogs® & News

Nearby

Air Quality

  Air Quality AQ Index Pollutant
Not available.

Snow Depth

Station Depth Elevation

Earthquake Activity

City Distance Mag. Time & Date
Minimum magnitude displayed is 2.5.

Coastal Water Temperatures

Place Temperature

Nearby Weather Stations